Terminal Aerodrome Forecast
Issued by NWS

Home | Current Version | Previous Version | Graphics & Text | Print | Product List | Glossary On
Versions: 1 2 3 4 5 6 7 8 9 10 11 12 13 14
000
FTUS45 KGGW 221130
TAFOLF
TAF
KOLF 221130Z 2212/2312 VRB03KT P6SM BKN110
     FM221300 VRB03KT P6SM VCSH BKN100
     FM222100 01005KT P6SM -SHRA BKN080
     FM230100 04007KT P6SM VCSH SCT110
     FM231100 06006KT P6SM BKN070=

USA.gov is the U.S. government's official web portal to all federal, state and local government web resources and services.